sensor_id;sensor_type;location;lat;lon;timestamp;pressure;altitude;pressure_sealevel;temperature;humidity
35419;BME280;21525;41.240;16.500;2022-11-15T00:01:53;101831.56;;;20.00;97.35
35419;BME280;21525;41.240;16.500;2022-11-15T00:04:38;101835.97;;;20.25;94.97
35419;BME280;21525;41.240;16.500;2022-11-15T00:07:22;101836.63;;;20.31;94.28
35419;BME280;21525;41.240;16.500;2022-11-15T00:10:06;101836.09;;;20.22;95.38
35419;BME280;21525;41.240;16.500;2022-11-15T00:12:50;101837.31;;;20.13;94.74
35419;BME280;21525;41.240;16.500;2022-11-15T00:15:39;101839.44;;;19.77;96.61
35419;BME280;21525;41.240;16.500;2022-11-15T00:18:24;101830.75;;;19.73;99.53
35419;BME280;21525;41.240;16.500;2022-11-15T00:21:12;101841.13;;;19.50;100.00
35419;BME280;21525;41.240;16.500;2022-11-15T00:23:58;101836.56;;;19.83;97.88
35419;BME280;21525;41.240;16.500;2022-11-15T00:26:42;101843.28;;;19.67;99.03
35419;BME280;21525;41.240;16.500;2022-11-15T00:29:27;101839.19;;;19.83;97.00
35419;BME280;21525;41.240;16.500;2022-11-15T00:32:11;101846.09;;;19.87;95.39
35419;BME280;21525;41.240;16.500;2022-11-15T00:34:55;101844.28;;;19.63;97.34
35419;BME280;21525;41.240;16.500;2022-11-15T00:37:40;101839.53;;;19.46;99.54
35419;BME280;21525;41.240;16.500;2022-11-15T00:40:24;101833.13;;;19.81;96.56
35419;BME280;21525;41.240;16.500;2022-11-15T00:43:09;101828.81;;;19.78;96.29
35419;BME280;21525;41.240;16.500;2022-11-15T00:45:54;101827.75;;;19.83;95.55
35419;BME280;21525;41.240;16.500;2022-11-15T00:48:38;101828.84;;;19.51;97.95
35419;BME280;21525;41.240;16.500;2022-11-15T00:51:22;101818.59;;;19.68;97.39
35419;BME280;21525;41.240;16.500;2022-11-15T00:54:07;101816.91;;;19.11;100.00
35419;BME280;21525;41.240;16.500;2022-11-15T00:56:51;101817.69;;;19.15;100.00
35419;BME280;21525;41.240;16.500;2022-11-15T00:59:35;101813.50;;;19.35;99.34
35419;BME280;21525;41.240;16.500;2022-11-15T01:02:20;101820.22;;;19.72;96.48
35419;BME280;21525;41.240;16.500;2022-11-15T01:05:05;101803.63;;;19.68;95.00
35419;BME280;21525;41.240;16.500;2022-11-15T01:07:54;101807.41;;;19.05;100.00
35419;BME280;21525;41.240;16.500;2022-11-15T01:10:38;101812.47;;;19.13;99.72
35419;BME280;21525;41.240;16.500;2022-11-15T01:13:22;101814.31;;;19.37;95.16
35419;BME280;21525;41.240;16.500;2022-11-15T01:16:12;101812.50;;;19.11;98.58
35419;BME280;21525;41.240;16.500;2022-11-15T01:18:57;101804.31;;;18.91;97.96
35419;BME280;21525;41.240;16.500;2022-11-15T01:21:42;101802.38;;;18.98;97.70
35419;BME280;21525;41.240;16.500;2022-11-15T01:24:27;101800.31;;;19.07;95.95
35419;BME280;21525;41.240;16.500;2022-11-15T01:27:12;101803.47;;;19.19;94.38
35419;BME280;21525;41.240;16.500;2022-11-15T01:29:57;101803.84;;;18.78;96.12
35419;BME280;21525;41.240;16.500;2022-11-15T01:32:41;101799.38;;;19.10;94.60
35419;BME280;21525;41.240;16.500;2022-11-15T01:35:25;101795.47;;;18.94;94.64
35419;BME280;21525;41.240;16.500;2022-11-15T01:38:09;101801.63;;;19.21;92.66
35419;BME280;21525;41.240;16.500;2022-11-15T01:40:53;101794.16;;;19.35;90.69
35419;BME280;21525;41.240;16.500;2022-11-15T01:43:39;101800.75;;;18.64;96.63
35419;BME280;21525;41.240;16.500;2022-11-15T01:46:35;101787.00;;;18.84;96.79
35419;BME280;21525;41.240;16.500;2022-11-15T01:49:23;101794.09;;;19.10;93.10
35419;BME280;21525;41.240;16.500;2022-11-15T01:52:15;101785.41;;;18.78;95.85
35419;BME280;21525;41.240;16.500;2022-11-15T01:55:04;101779.88;;;18.86;95.40
35419;BME280;21525;41.240;16.500;2022-11-15T01:57:53;101778.00;;;18.90;96.58
35419;BME280;21525;41.240;16.500;2022-11-15T02:00:39;101776.53;;;18.81;96.93
35419;BME280;21525;41.240;16.500;2022-11-15T02:03:28;101775.09;;;18.99;95.89
35419;BME280;21525;41.240;16.500;2022-11-15T02:06:18;101767.41;;;18.91;98.80
35419;BME280;21525;41.240;16.500;2022-11-15T02:09:03;101775.72;;;19.07;98.09
35419;BME280;21525;41.240;16.500;2022-11-15T02:11:48;101767.91;;;19.04;98.45
35419;BME280;21525;41.240;16.500;2022-11-15T02:14:35;101771.84;;;19.17;97.77
35419;BME280;21525;41.240;16.500;2022-11-15T02:17:29;101780.00;;;19.11;96.26
35419;BME280;21525;41.240;16.500;2022-11-15T02:20:43;101783.34;;;19.16;96.58
35419;BME280;21525;41.240;16.500;2022-11-15T02:24:17;101787.09;;;18.81;100.00
35419;BME280;21525;41.240;16.500;2022-11-15T02:31:07;101786.59;;;19.24;95.13
35419;BME280;21525;41.240;16.500;2022-11-15T02:40:13;101782.81;;;19.05;96.99
35419;BME280;21525;41.240;16.500;2022-11-15T02:43:10;101778.13;;;19.15;98.25
35419;BME280;21525;41.240;16.500;2022-11-15T02:46:26;101775.56;;;19.11;96.00
35419;BME280;21525;41.240;16.500;2022-11-15T02:49:33;101773.00;;;19.10;97.77
35419;BME280;21525;41.240;16.500;2022-11-15T02:52:21;101769.44;;;19.11;97.64
35419;BME280;21525;41.240;16.500;2022-11-15T02:55:26;101772.44;;;19.27;95.58
35419;BME280;21525;41.240;16.500;2022-11-15T03:04:15;101769.50;;;18.82;98.52
35419;BME280;21525;41.240;16.500;2022-11-15T03:10:05;101772.28;;;19.05;96.40
35419;BME280;21525;41.240;16.500;2022-11-15T03:12:55;101775.13;;;18.97;100.00
35419;BME280;21525;41.240;16.500;2022-11-15T03:15:48;101773.94;;;19.07;98.75
35419;BME280;21525;41.240;16.500;2022-11-15T03:18:37;101778.63;;;18.98;99.21
35419;BME280;21525;41.240;16.500;2022-11-15T03:21:22;101784.19;;;18.89;100.00
35419;BME280;21525;41.240;16.500;2022-11-15T03:24:08;101784.66;;;19.29;96.75
35419;BME280;21525;41.240;16.500;2022-11-15T03:26:54;101787.81;;;19.40;95.55
35419;BME280;21525;41.240;16.500;2022-11-15T03:29:44;101780.50;;;19.22;97.36
35419;BME280;21525;41.240;16.500;2022-11-15T03:32:34;101776.69;;;19.84;92.40
35419;BME280;21525;41.240;16.500;2022-11-15T03:35:23;101778.94;;;19.43;94.29
35419;BME280;21525;41.240;16.500;2022-11-15T03:41:08;101778.38;;;19.33;97.43
35419;BME280;21525;41.240;16.500;2022-11-15T03:44:02;101776.91;;;19.25;96.38
35419;BME280;21525;41.240;16.500;2022-11-15T03:47:03;101781.06;;;19.32;95.47
35419;BME280;21525;41.240;16.500;2022-11-15T03:49:59;101774.34;;;19.22;95.93
35419;BME280;21525;41.240;16.500;2022-11-15T03:52:46;101779.28;;;19.32;96.73
35419;BME280;21525;41.240;16.500;2022-11-15T03:55:32;101773.59;;;19.18;98.33
35419;BME280;21525;41.240;16.500;2022-11-15T03:58:17;101764.16;;;19.11;98.42
35419;BME280;21525;41.240;16.500;2022-11-15T04:01:01;101777.47;;;19.34;96.69
35419;BME280;21525;41.240;16.500;2022-11-15T04:03:45;101767.63;;;19.39;94.92
35419;BME280;21525;41.240;16.500;2022-11-15T04:06:30;101774.88;;;19.33;94.73
35419;BME280;21525;41.240;16.500;2022-11-15T04:09:14;101769.59;;;19.33;95.78
35419;BME280;21525;41.240;16.500;2022-11-15T04:11:58;101774.69;;;19.39;94.48
35419;BME280;21525;41.240;16.500;2022-11-15T04:14:43;101769.50;;;19.36;94.68
35419;BME280;21525;41.240;16.500;2022-11-15T04:17:52;101778.34;;;19.07;96.19
35419;BME280;21525;41.240;16.500;2022-11-15T04:20:37;101772.53;;;18.96;96.63
35419;BME280;21525;41.240;16.500;2022-11-15T04:23:40;101778.25;;;19.10;96.85
35419;BME280;21525;41.240;16.500;2022-11-15T04:26:43;101769.78;;;19.55;94.66
35419;BME280;21525;41.240;16.500;2022-11-15T04:29:27;101777.91;;;19.21;95.67
35419;BME280;21525;41.240;16.500;2022-11-15T04:32:20;101774.44;;;19.19;96.42
35419;BME280;21525;41.240;16.500;2022-11-15T04:35:05;101771.53;;;19.28;95.75
35419;BME280;21525;41.240;16.500;2022-11-15T04:38:10;101761.72;;;19.31;93.79
35419;BME280;21525;41.240;16.500;2022-11-15T04:40:54;101761.44;;;19.40;93.55
35419;BME280;21525;41.240;16.500;2022-11-15T04:43:38;101752.66;;;19.13;94.67
35419;BME280;21525;41.240;16.500;2022-11-15T04:46:24;101759.25;;;19.27;94.62
35419;BME280;21525;41.240;16.500;2022-11-15T04:49:08;101751.47;;;19.22;95.71
35419;BME280;21525;41.240;16.500;2022-11-15T04:51:52;101753.88;;;19.30;96.40
35419;BME280;21525;41.240;16.500;2022-11-15T04:54:36;101755.84;;;19.23;95.22
35419;BME280;21525;41.240;16.500;2022-11-15T04:57:20;101747.34;;;19.41;94.87
35419;BME280;21525;41.240;16.500;2022-11-15T05:00:08;101753.28;;;19.48;93.93
35419;BME280;21525;41.240;16.500;2022-11-15T05:02:52;101755.34;;;19.38;93.67
35419;BME280;21525;41.240;16.500;2022-11-15T05:05:57;101753.44;;;19.43;93.99
35419;BME280;21525;41.240;16.500;2022-11-15T05:08:41;101756.06;;;19.70;92.30
35419;BME280;21525;41.240;16.500;2022-11-15T05:11:26;101758.44;;;19.51;92.86
35419;BME280;21525;41.240;16.500;2022-11-15T05:14:13;101753.44;;;19.43;93.73
35419;BME280;21525;41.240;16.500;2022-11-15T05:16:57;101758.56;;;19.20;94.80
35419;BME280;21525;41.240;16.500;2022-11-15T05:19:42;101758.78;;;18.86;99.17
35419;BME280;21525;41.240;16.500;2022-11-15T05:22:27;101755.84;;;18.67;100.00
35419;BME280;21525;41.240;16.500;2022-11-15T05:25:11;101754.78;;;19.29;96.98
35419;BME280;21525;41.240;16.500;2022-11-15T05:27:55;101766.06;;;19.34;94.64
35419;BME280;21525;41.240;16.500;2022-11-15T05:30:39;101767.53;;;19.16;94.47
35419;BME280;21525;41.240;16.500;2022-11-15T05:33:24;101772.03;;;19.12;97.97
35419;BME280;21525;41.240;16.500;2022-11-15T05:39:04;101770.72;;;19.26;96.47
35419;BME280;21525;41.240;16.500;2022-11-15T05:41:54;101764.22;;;19.36;94.56
35419;BME280;21525;41.240;16.500;2022-11-15T05:44:43;101762.16;;;19.45;94.06
35419;BME280;21525;41.240;16.500;2022-11-15T05:47:29;101764.31;;;19.33;93.79
35419;BME280;21525;41.240;16.500;2022-11-15T05:50:16;101771.41;;;18.76;100.00
35419;BME280;21525;41.240;16.500;2022-11-15T05:53:01;101772.19;;;18.49;100.00
35419;BME280;21525;41.240;16.500;2022-11-15T05:55:46;101779.88;;;18.86;100.00
35419;BME280;21525;41.240;16.500;2022-11-15T05:58:32;101774.63;;;19.14;100.00
35419;BME280;21525;41.240;16.500;2022-11-15T06:01:17;101774.63;;;19.14;98.01
35419;BME280;21525;41.240;16.500;2022-11-15T06:04:01;101785.28;;;19.37;96.27
35419;BME280;21525;41.240;16.500;2022-11-15T06:06:46;101789.56;;;19.41;95.53
35419;BME280;21525;41.240;16.500;2022-11-15T06:09:31;101785.25;;;19.65;94.10
35419;BME280;21525;41.240;16.500;2022-11-15T06:12:15;101787.44;;;19.53;92.70
35419;BME280;21525;41.240;16.500;2022-11-15T06:15:00;101786.09;;;19.39;93.98
35419;BME280;21525;41.240;16.500;2022-11-15T06:17:44;101780.44;;;19.78;91.96
35419;BME280;21525;41.240;16.500;2022-11-15T06:20:29;101789.75;;;19.88;91.32
35419;BME280;21525;41.240;16.500;2022-11-15T06:23:13;101790.31;;;19.45;94.14
35419;BME280;21525;41.240;16.500;2022-11-15T06:25:58;101798.16;;;19.74;92.59
35419;BME280;21525;41.240;16.500;2022-11-15T06:28:43;101796.03;;;19.84;91.82
35419;BME280;21525;41.240;16.500;2022-11-15T06:31:27;101798.91;;;19.78;91.18
35419;BME280;21525;41.240;16.500;2022-11-15T06:34:12;101797.94;;;20.05;88.24
35419;BME280;21525;41.240;16.500;2022-11-15T06:36:56;101794.34;;;18.73;98.76
35419;BME280;21525;41.240;16.500;2022-11-15T06:39:40;101794.16;;;19.35;96.46
35419;BME280;21525;41.240;16.500;2022-11-15T06:42:25;101801.44;;;20.06;88.98
35419;BME280;21525;41.240;16.500;2022-11-15T06:45:09;101802.56;;;19.99;89.25
35419;BME280;21525;41.240;16.500;2022-11-15T06:47:54;101800.44;;;20.10;88.42
35419;BME280;21525;41.240;16.500;2022-11-15T06:50:38;101796.38;;;20.95;84.36
35419;BME280;21525;41.240;16.500;2022-11-15T06:53:23;101808.59;;;20.75;84.14
35419;BME280;21525;41.240;16.500;2022-11-15T06:56:08;101804.31;;;20.95;81.96
35419;BME280;21525;41.240;16.500;2022-11-15T06:58:53;101810.41;;;21.19;80.66
35419;BME280;21525;41.240;16.500;2022-11-15T07:01:37;101805.69;;;21.05;79.98
35419;BME280;21525;41.240;16.500;2022-11-15T07:04:21;101807.13;;;21.12;80.10
35419;BME280;21525;41.240;16.500;2022-11-15T07:07:06;101808.63;;;21.19;79.89
35419;BME280;21525;41.240;16.500;2022-11-15T07:09:50;101809.00;;;21.54;77.23
35419;BME280;21525;41.240;16.500;2022-11-15T07:12:35;101807.28;;;21.53;77.67
35419;BME280;21525;41.240;16.500;2022-11-15T07:15:22;101805.31;;;21.58;77.30
35419;BME280;21525;41.240;16.500;2022-11-15T07:18:06;101799.59;;;21.46;77.45
35419;BME280;21525;41.240;16.500;2022-11-15T07:20:50;101805.91;;;21.44;77.14
35419;BME280;21525;41.240;16.500;2022-11-15T07:23:39;101812.44;;;21.35;78.06
35419;BME280;21525;41.240;16.500;2022-11-15T07:26:23;101799.72;;;22.26;73.66
35419;BME280;21525;41.240;16.500;2022-11-15T07:29:08;101800.31;;;22.33;72.71
35419;BME280;21525;41.240;16.500;2022-11-15T07:31:52;101805.81;;;22.86;68.52
35419;BME280;21525;41.240;16.500;2022-11-15T07:34:36;101805.56;;;23.64;65.38
35419;BME280;21525;41.240;16.500;2022-11-15T07:37:21;101818.19;;;24.28;62.16
35419;BME280;21525;41.240;16.500;2022-11-15T07:40:06;101815.41;;;24.96;58.68
35419;BME280;21525;41.240;16.500;2022-11-15T07:42:50;101816.53;;;25.23;57.56
35419;BME280;21525;41.240;16.500;2022-11-15T07:45:45;101809.38;;;25.69;56.77
35419;BME280;21525;41.240;16.500;2022-11-15T07:48:30;101803.06;;;26.00;54.47
35419;BME280;21525;41.240;16.500;2022-11-15T07:51:16;101809.25;;;26.59;52.84
35419;BME280;21525;41.240;16.500;2022-11-15T07:54:00;101797.88;;;27.65;50.59
35419;BME280;21525;41.240;16.500;2022-11-15T07:56:45;101799.34;;;27.56;50.40
35419;BME280;21525;41.240;16.500;2022-11-15T07:59:29;101792.81;;;27.48;50.33
35419;BME280;21525;41.240;16.500;2022-11-15T08:02:14;101803.28;;;27.90;49.65
35419;BME280;21525;41.240;16.500;2022-11-15T08:05:00;101793.91;;;27.31;50.29
35419;BME280;21525;41.240;16.500;2022-11-15T08:07:44;101798.84;;;27.24;50.76
35419;BME280;21525;41.240;16.500;2022-11-15T08:10:29;101797.41;;;26.35;52.28
35419;BME280;21525;41.240;16.500;2022-11-15T08:13:14;101797.75;;;25.86;54.24
35419;BME280;21525;41.240;16.500;2022-11-15T08:15:59;101802.56;;;25.50;56.28
35419;BME280;21525;41.240;16.500;2022-11-15T08:18:43;101801.50;;;25.52;56.79
35419;BME280;21525;41.240;16.500;2022-11-15T08:21:28;101793.63;;;25.51;57.33
35419;BME280;21525;41.240;16.500;2022-11-15T08:24:12;101794.38;;;25.53;57.52
35419;BME280;21525;41.240;16.500;2022-11-15T08:26:57;101793.09;;;25.60;57.33
35419;BME280;21525;41.240;16.500;2022-11-15T08:29:43;101792.13;;;25.61;57.85
35419;BME280;21525;41.240;16.500;2022-11-15T08:32:27;101787.06;;;25.56;57.75
35419;BME280;21525;41.240;16.500;2022-11-15T08:35:12;101790.25;;;25.63;57.61
35419;BME280;21525;41.240;16.500;2022-11-15T08:37:56;101794.00;;;25.74;56.84
35419;BME280;21525;41.240;16.500;2022-11-15T08:40:40;101785.25;;;25.57;58.28
35419;BME280;21525;41.240;16.500;2022-11-15T08:43:24;101793.91;;;25.76;57.26
35419;BME280;21525;41.240;16.500;2022-11-15T08:46:12;101789.38;;;25.62;57.24
35419;BME280;21525;41.240;16.500;2022-11-15T08:48:57;101799.66;;;25.38;58.44
35419;BME280;21525;41.240;16.500;2022-11-15T08:51:41;101795.28;;;25.67;57.43
35419;BME280;21525;41.240;16.500;2022-11-15T08:54:25;101793.72;;;25.79;56.80
35419;BME280;21525;41.240;16.500;2022-11-15T08:57:10;101796.03;;;25.99;56.44
35419;BME280;21525;41.240;16.500;2022-11-15T08:59:54;101803.34;;;25.36;57.22
35419;BME280;21525;41.240;16.500;2022-11-15T09:02:40;101801.28;;;26.01;55.92
35419;BME280;21525;41.240;16.500;2022-11-15T09:05:24;101797.03;;;26.41;54.34
35419;BME280;21525;41.240;16.500;2022-11-15T09:08:09;101796.94;;;26.28;54.24
35419;BME280;21525;41.240;16.500;2022-11-15T09:10:53;101795.34;;;26.54;53.51
35419;BME280;21525;41.240;16.500;2022-11-15T09:13:37;101788.69;;;26.88;51.96
35419;BME280;21525;41.240;16.500;2022-11-15T09:16:22;101784.16;;;26.76;52.68
35419;BME280;21525;41.240;16.500;2022-11-15T09:19:06;101789.53;;;26.62;52.53
35419;BME280;21525;41.240;16.500;2022-11-15T09:21:51;101792.78;;;27.08;52.17
35419;BME280;21525;41.240;16.500;2022-11-15T09:24:35;101782.31;;;26.91;51.16
35419;BME280;21525;41.240;16.500;2022-11-15T09:27:20;101787.25;;;26.97;51.21
35419;BME280;21525;41.240;16.500;2022-11-15T09:30:05;101783.00;;;27.21;52.03
35419;BME280;21525;41.240;16.500;2022-11-15T09:32:50;101774.72;;;27.38;51.41
35419;BME280;21525;41.240;16.500;2022-11-15T09:35:34;101774.19;;;27.46;49.74
35419;BME280;21525;41.240;16.500;2022-11-15T09:38:19;101766.31;;;27.57;49.03
35419;BME280;21525;41.240;16.500;2022-11-15T09:47:03;101767.31;;;27.02;48.92
35419;BME280;21525;41.240;16.500;2022-11-15T09:50:12;101769.38;;;27.38;48.74
35419;BME280;21525;41.240;16.500;2022-11-15T09:52:42;101768.69;;;26.81;49.77
35419;BME280;21525;41.240;16.500;2022-11-15T09:55:11;101763.41;;;27.08;49.30
35419;BME280;21525;41.240;16.500;2022-11-15T09:57:59;101762.59;;;27.20;48.87
35419;BME280;21525;41.240;16.500;2022-11-15T10:00:32;101755.84;;;27.15;48.92
35419;BME280;21525;41.240;16.500;2022-11-15T10:05:53;101735.69;;;27.36;48.58
35419;BME280;21525;41.240;16.500;2022-11-15T10:11:08;101724.34;;;26.93;48.87
35419;BME280;21525;41.240;16.500;2022-11-15T10:13:37;101713.47;;;27.35;47.91
35419;BME280;21525;41.240;16.500;2022-11-15T10:19:28;101707.91;;;26.99;48.70
35419;BME280;21525;41.240;16.500;2022-11-15T10:24:58;101707.38;;;27.33;48.39
35419;BME280;21525;41.240;16.500;2022-11-15T10:27:26;101694.38;;;27.02;48.19
35419;BME280;21525;41.240;16.500;2022-11-15T10:29:51;101698.69;;;27.17;48.44
35419;BME280;21525;41.240;16.500;2022-11-15T10:32:19;101690.69;;;27.17;48.92
35419;BME280;21525;41.240;16.500;2022-11-15T10:34:47;101678.19;;;26.91;49.16
35419;BME280;21525;41.240;16.500;2022-11-15T10:37:13;101673.50;;;26.12;50.97
35419;BME280;21525;41.240;16.500;2022-11-15T10:39:39;101673.78;;;26.22;51.62
35419;BME280;21525;41.240;16.500;2022-11-15T10:42:16;101670.91;;;26.53;50.85
35419;BME280;21525;41.240;16.500;2022-11-15T10:44:44;101666.38;;;25.98;51.48
35419;BME280;21525;41.240;16.500;2022-11-15T10:47:27;101660.59;;;26.61;51.15
35419;BME280;21525;41.240;16.500;2022-11-15T10:50:04;101671.09;;;26.77;50.46
35419;BME280;21525;41.240;16.500;2022-11-15T10:52:31;101661.09;;;27.33;49.62
35419;BME280;21525;41.240;16.500;2022-11-15T10:57:33;101647.88;;;26.92;49.55
35419;BME280;21525;41.240;16.500;2022-11-15T11:00:27;101646.63;;;26.70;50.11
35419;BME280;21525;41.240;16.500;2022-11-15T11:05:26;101644.78;;;26.58;51.12
35419;BME280;21525;41.240;16.500;2022-11-15T11:08:23;101649.47;;;26.67;50.30
35419;BME280;21525;41.240;16.500;2022-11-15T11:10:58;101633.59;;;27.05;49.64
35419;BME280;21525;41.240;16.500;2022-11-15T11:13:26;101625.41;;;27.34;49.21
35419;BME280;21525;41.240;16.500;2022-11-15T11:16:00;101634.28;;;27.34;48.82
35419;BME280;21525;41.240;16.500;2022-11-15T11:21:56;101619.47;;;25.96;51.30
35419;BME280;21525;41.240;16.500;2022-11-15T11:24:47;101623.34;;;26.99;50.13
35419;BME280;21525;41.240;16.500;2022-11-15T11:35:20;101627.41;;;27.05;49.15
35419;BME280;21525;41.240;16.500;2022-11-15T11:38:04;101616.63;;;26.26;51.60
35419;BME280;21525;41.240;16.500;2022-11-15T11:40:44;101611.28;;;25.85;52.97
35419;BME280;21525;41.240;16.500;2022-11-15T11:51:26;101594.94;;;25.18;58.17
35419;BME280;21525;41.240;16.500;2022-11-15T11:54:06;101586.63;;;25.95;54.90
35419;BME280;21525;41.240;16.500;2022-11-15T11:56:38;101578.38;;;26.13;53.89
35419;BME280;21525;41.240;16.500;2022-11-15T11:59:19;101576.34;;;25.32;56.46
35419;BME280;21525;41.240;16.500;2022-11-15T12:01:46;101573.97;;;25.85;55.35
35419;BME280;21525;41.240;16.500;2022-11-15T12:04:32;101574.44;;;24.74;58.00
35419;BME280;21525;41.240;16.500;2022-11-15T12:07:24;101572.28;;;24.20;60.40
35419;BME280;21525;41.240;16.500;2022-11-15T12:10:33;101575.13;;;24.78;58.42
35419;BME280;21525;41.240;16.500;2022-11-15T12:15:25;101569.19;;;23.80;60.89
35419;BME280;21525;41.240;16.500;2022-11-15T12:17:55;101561.81;;;24.48;59.86
35419;BME280;21525;41.240;16.500;2022-11-15T12:20:32;101561.81;;;24.48;58.51
35419;BME280;21525;41.240;16.500;2022-11-15T12:23:23;101561.88;;;24.92;58.13
35419;BME280;21525;41.240;16.500;2022-11-15T12:26:04;101554.78;;;25.07;57.69
35419;BME280;21525;41.240;16.500;2022-11-15T12:28:57;101559.22;;;25.51;55.93
35419;BME280;21525;41.240;16.500;2022-11-15T12:31:41;101556.53;;;25.93;54.18
35419;BME280;21525;41.240;16.500;2022-11-15T12:34:40;101550.47;;;25.63;53.37
35419;BME280;21525;41.240;16.500;2022-11-15T12:45:34;101537.88;;;25.93;53.05
35419;BME280;21525;41.240;16.500;2022-11-15T13:01:09;101528.72;;;24.22;58.65
35419;BME280;21525;41.240;16.500;2022-11-15T13:07:01;101516.66;;;25.06;56.07
35419;BME280;21525;41.240;16.500;2022-11-15T13:12:02;101521.81;;;23.88;59.56
35419;BME280;21525;41.240;16.500;2022-11-15T13:31:25;101516.72;;;24.91;58.05
35419;BME280;21525;41.240;16.500;2022-11-15T13:33:50;101530.53;;;23.41;63.49
35419;BME280;21525;41.240;16.500;2022-11-15T13:36:22;101533.88;;;23.12;64.74
35419;BME280;21525;41.240;16.500;2022-11-15T13:38:56;101518.81;;;23.45;63.34
35419;BME280;21525;41.240;16.500;2022-11-15T13:41:25;101520.50;;;23.79;63.23
35419;BME280;21525;41.240;16.500;2022-11-15T13:43:51;101506.53;;;24.69;59.78
35419;BME280;21525;41.240;16.500;2022-11-15T13:46:21;101517.03;;;24.56;59.19
35419;BME280;21525;41.240;16.500;2022-11-15T13:48:53;101514.81;;;23.05;65.35
35419;BME280;21525;41.240;16.500;2022-11-15T13:51:50;101510.25;;;23.40;65.86
35419;BME280;21525;41.240;16.500;2022-11-15T13:54:57;101516.41;;;22.56;70.31
35419;BME280;21525;41.240;16.500;2022-11-15T13:57:34;101507.31;;;23.29;72.72
35419;BME280;21525;41.240;16.500;2022-11-15T14:00:04;101505.28;;;23.01;68.49
35419;BME280;21525;41.240;16.500;2022-11-15T14:02:40;101509.81;;;22.99;68.28
35419;BME280;21525;41.240;16.500;2022-11-15T14:05:17;101505.56;;;24.24;62.73
35419;BME280;21525;41.240;16.500;2022-11-15T14:10:35;101503.38;;;23.54;63.05
35419;BME280;21525;41.240;16.500;2022-11-15T14:13:03;101510.13;;;23.26;65.70
35419;BME280;21525;41.240;16.500;2022-11-15T14:17:55;101497.00;;;24.19;61.27
35419;BME280;21525;41.240;16.500;2022-11-15T14:23:05;101504.56;;;22.63;68.52
35419;BME280;21525;41.240;16.500;2022-11-15T14:25:34;101501.25;;;23.10;66.25
35419;BME280;21525;41.240;16.500;2022-11-15T14:30:43;101489.53;;;22.98;64.96
35419;BME280;21525;41.240;16.500;2022-11-15T14:33:32;101494.75;;;22.65;68.09
35419;BME280;21525;41.240;16.500;2022-11-15T14:36:12;101485.56;;;22.90;67.77
35419;BME280;21525;41.240;16.500;2022-11-15T14:38:39;101478.19;;;23.92;62.09
35419;BME280;21525;41.240;16.500;2022-11-15T14:41:05;101484.25;;;23.14;65.23
35419;BME280;21525;41.240;16.500;2022-11-15T14:43:31;101481.81;;;22.94;66.82
35419;BME280;21525;41.240;16.500;2022-11-15T14:45:57;101487.56;;;22.85;66.87
35419;BME280;21525;41.240;16.500;2022-11-15T14:48:23;101483.34;;;22.63;68.13
35419;BME280;21525;41.240;16.500;2022-11-15T14:50:49;101479.94;;;22.78;67.67
35419;BME280;21525;41.240;16.500;2022-11-15T14:53:17;101476.03;;;23.03;68.33
35419;BME280;21525;41.240;16.500;2022-11-15T14:55:43;101472.50;;;23.51;64.26
35419;BME280;21525;41.240;16.500;2022-11-15T14:58:09;101474.06;;;23.55;65.56
35419;BME280;21525;41.240;16.500;2022-11-15T15:00:40;101471.03;;;23.45;65.63
35419;BME280;21525;41.240;16.500;2022-11-15T15:03:06;101469.78;;;23.53;64.29
35419;BME280;21525;41.240;16.500;2022-11-15T15:05:40;101461.47;;;23.90;63.30
35419;BME280;21525;41.240;16.500;2022-11-15T15:08:07;101476.88;;;22.86;68.55
35419;BME280;21525;41.240;16.500;2022-11-15T15:10:37;101466.09;;;23.06;67.79
35419;BME280;21525;41.240;16.500;2022-11-15T15:13:04;101460.56;;;23.27;67.09
35419;BME280;21525;41.240;16.500;2022-11-15T15:15:35;101462.69;;;23.04;67.77
35419;BME280;21525;41.240;16.500;2022-11-15T15:18:02;101465.94;;;22.75;69.65
35419;BME280;21525;41.240;16.500;2022-11-15T15:20:30;101456.56;;;23.51;66.03
35419;BME280;21525;41.240;16.500;2022-11-15T15:22:56;101457.25;;;23.39;66.66
35419;BME280;21525;41.240;16.500;2022-11-15T15:25:23;101456.81;;;23.46;66.40
35419;BME280;21525;41.240;16.500;2022-11-15T15:27:52;101453.22;;;23.32;67.47
35419;BME280;21525;41.240;16.500;2022-11-15T15:30:19;101457.47;;;23.19;68.19
35419;BME280;21525;41.240;16.500;2022-11-15T15:32:45;101453.41;;;22.96;69.23
35419;BME280;21525;41.240;16.500;2022-11-15T15:35:15;101452.94;;;22.70;72.06
35419;BME280;21525;41.240;16.500;2022-11-15T15:37:42;101455.13;;;22.79;71.39
35419;BME280;21525;41.240;16.500;2022-11-15T15:42:42;101446.00;;;23.18;69.68
35419;BME280;21525;41.240;16.500;2022-11-15T15:45:08;101444.81;;;22.91;70.82
35419;BME280;21525;41.240;16.500;2022-11-15T15:47:34;101441.22;;;22.92;70.73
35419;BME280;21525;41.240;16.500;2022-11-15T15:50:00;101437.16;;;23.02;70.32
35419;BME280;21525;41.240;16.500;2022-11-15T15:52:26;101438.69;;;22.56;73.61
35419;BME280;21525;41.240;16.500;2022-11-15T15:54:52;101435.91;;;22.74;74.38
35419;BME280;21525;41.240;16.500;2022-11-15T15:57:18;101438.19;;;22.82;73.49
35419;BME280;21525;41.240;16.500;2022-11-15T15:59:43;101427.75;;;23.12;72.53
35419;BME280;21525;41.240;16.500;2022-11-15T16:02:12;101423.69;;;23.38;69.48
35419;BME280;21525;41.240;16.500;2022-11-15T16:04:39;101427.41;;;23.18;70.10